createdAt,value
2023-02-25T00:00:46.141Z,0.80
2023-02-25T00:03:15.597Z,0.98
2023-02-25T00:05:44.512Z,0.93
2023-02-25T00:08:12.162Z,0.93
2023-02-25T00:10:39.670Z,0.70
2023-02-25T00:13:17.700Z,1.02
2023-02-25T00:15:45.824Z,0.93
2023-02-25T00:18:13.379Z,1.25
2023-02-25T00:20:41.817Z,1.33
2023-02-25T00:23:10.791Z,1.05
2023-02-25T00:25:38.432Z,0.82
2023-02-25T00:28:06.489Z,0.90
2023-02-25T00:30:34.297Z,1.02
2023-02-25T00:33:02.398Z,0.85
2023-02-25T00:35:30.027Z,0.77
2023-02-25T00:38:13.793Z,0.68
2023-02-25T00:40:44.893Z,1.10
2023-02-25T00:43:12.485Z,1.20
2023-02-25T00:45:40.513Z,1.17
2023-02-25T00:48:08.731Z,0.77
2023-02-25T00:50:39.545Z,1.05
2023-02-25T00:53:07.175Z,0.70
2023-02-25T00:55:34.749Z,0.80
2023-02-25T00:58:04.203Z,0.88
2023-02-25T01:00:40.518Z,0.68
2023-02-25T01:03:14.177Z,0.60
2023-02-25T01:05:42.176Z,0.80
2023-02-25T01:08:10.975Z,0.68
2023-02-25T01:10:38.615Z,0.75
2023-02-25T01:13:07.541Z,0.80
2023-02-25T01:15:35.133Z,0.68
2023-02-25T01:18:02.680Z,0.80
2023-02-25T01:20:30.306Z,0.45
2023-02-25T01:22:57.964Z,0.70
2023-02-25T01:25:25.857Z,0.60
2023-02-25T01:27:55.423Z,0.73
2023-02-25T01:30:24.601Z,0.75
2023-02-25T01:32:52.441Z,0.60
2023-02-25T01:35:20.033Z,0.70
2023-02-25T01:37:49.749Z,0.52
2023-02-25T01:40:17.983Z,0.60
2023-02-25T01:42:46.164Z,0.50
2023-02-25T01:45:32.637Z,0.52
2023-02-25T01:48:07.585Z,0.60
2023-02-25T01:50:42.997Z,0.80
2023-02-25T01:53:10.869Z,0.50
2023-02-25T01:55:42.232Z,0.60
2023-02-25T01:58:10.991Z,0.45
2023-02-25T02:00:41.263Z,0.40
2023-02-25T02:03:15.870Z,0.70
2023-02-25T02:06:04.158Z,0.80
2023-02-25T02:08:34.318Z,0.63
2023-02-25T02:11:02.610Z,0.63
2023-02-25T02:13:33.580Z,0.70
2023-02-25T02:16:14.900Z,0.55
2023-02-25T02:18:47.558Z,0.52
2023-02-25T02:21:29.744Z,0.70
2023-02-25T02:24:25.883Z,0.68
2023-02-25T02:26:59.229Z,0.80
2023-02-25T02:29:49.726Z,0.68
2023-02-25T02:32:24.883Z,0.75
2023-02-25T02:35:00.133Z,1.00
2023-02-25T02:37:39.411Z,0.77
2023-02-25T02:40:19.785Z,0.73
2023-02-25T02:42:58.343Z,0.60
2023-02-25T02:45:35.222Z,0.60
2023-02-25T02:48:08.198Z,0.70
2023-02-25T02:50:38.964Z,0.82
2023-02-25T02:53:10.796Z,0.60
2023-02-25T02:55:42.151Z,0.88
2023-02-25T02:58:12.651Z,0.77
2023-02-25T03:00:42.957Z,0.90
2023-02-25T03:03:15.461Z,0.60
2023-02-25T03:05:47.565Z,1.00
2023-02-25T03:08:19.201Z,0.60
2023-02-25T03:10:48.210Z,0.90
2023-02-25T03:13:16.351Z,0.82
2023-02-25T03:15:45.701Z,0.70
2023-02-25T03:18:23.913Z,0.90
2023-02-25T03:20:55.832Z,0.80
2023-02-25T03:23:28.180Z,1.00
2023-02-25T03:25:59.620Z,0.98
2023-02-25T03:28:32.701Z,1.13
2023-02-25T03:31:06.281Z,0.88
2023-02-25T03:33:38.381Z,1.00
2023-02-25T03:36:10.763Z,1.10
2023-02-25T03:38:42.688Z,1.00
2023-02-25T03:41:12.379Z,1.35
2023-02-25T03:43:43.567Z,0.90
2023-02-25T03:46:12.232Z,1.02
2023-02-25T03:48:41.968Z,0.80
2023-02-25T03:51:14.168Z,0.73
2023-02-25T03:53:42.848Z,0.90
2023-02-25T03:56:13.821Z,0.93
2023-02-25T03:58:44.792Z,1.02
2023-02-25T04:01:17.349Z,0.80
2023-02-25T04:03:46.561Z,1.33
2023-02-25T04:06:15.574Z,1.00
2023-02-25T04:08:44.382Z,0.77
2023-02-25T04:11:12.276Z,1.00
2023-02-25T04:13:39.913Z,0.80
2023-02-25T04:16:08.608Z,1.02
2023-02-25T04:18:36.659Z,0.90
2023-02-25T04:21:07.724Z,0.95
2023-02-25T04:23:35.803Z,0.80
2023-02-25T04:26:03.758Z,1.05
2023-02-25T04:28:31.573Z,0.85
2023-02-25T04:30:59.210Z,1.00
2023-02-25T04:33:27.129Z,0.80
2023-02-25T04:35:54.661Z,0.90
2023-02-25T04:38:23.540Z,0.90
2023-02-25T04:40:52.156Z,1.13
2023-02-25T04:43:19.865Z,0.90
2023-02-25T04:45:47.528Z,0.70
2023-02-25T04:48:15.191Z,1.10
2023-02-25T04:50:42.708Z,0.93
2023-02-25T04:53:10.315Z,0.80
2023-02-25T04:55:39.266Z,0.90
2023-02-25T04:58:06.862Z,0.90
2023-02-25T05:00:34.391Z,0.90
2023-02-25T05:03:01.952Z,0.98
2023-02-25T05:05:29.567Z,0.63
2023-02-25T05:07:57.483Z,0.85
2023-02-25T05:10:25.105Z,0.77
2023-02-25T05:12:54.000Z,1.02
2023-02-25T05:15:21.578Z,0.77
2023-02-25T05:17:49.305Z,0.80
2023-02-25T05:20:17.178Z,0.70
2023-02-25T05:22:44.924Z,0.70
2023-02-25T05:25:12.852Z,0.70
2023-02-25T05:27:40.546Z,1.02
2023-02-25T05:30:11.246Z,0.82
2023-02-25T05:32:39.611Z,0.93
2023-02-25T05:35:09.660Z,0.80
2023-02-25T05:37:37.349Z,0.80
2023-02-25T05:40:07.073Z,1.67
2023-02-25T05:42:34.646Z,0.70
2023-02-25T05:45:02.299Z,0.82
2023-02-25T05:47:31.326Z,1.20
2023-02-25T05:49:58.807Z,0.90
2023-02-25T05:52:26.522Z,0.80
2023-02-25T05:54:54.056Z,0.90
2023-02-25T05:57:23.972Z,0.80
2023-02-25T05:59:51.707Z,0.70
2023-02-25T06:02:19.249Z,0.65
2023-02-25T06:04:48.353Z,1.10
2023-02-25T06:07:16.205Z,0.85
2023-02-25T06:09:43.810Z,1.25
2023-02-25T06:12:11.443Z,2.28
2023-02-25T06:14:39.017Z,0.60
2023-02-25T06:17:06.578Z,0.80
2023-02-25T06:19:34.160Z,1.50
2023-02-25T06:22:03.034Z,0.80
2023-02-25T06:24:30.600Z,0.77
2023-02-25T06:26:58.194Z,1.02
2023-02-25T06:29:25.797Z,0.60
2023-02-25T06:31:53.425Z,1.00
2023-02-25T06:34:21.172Z,1.20
2023-02-25T06:36:48.806Z,1.58
2023-02-25T06:39:17.715Z,1.08
2023-02-25T06:41:45.237Z,1.30
2023-02-25T06:44:14.873Z,1.20
2023-02-25T06:46:43.431Z,1.02
2023-02-25T06:49:11.336Z,1.45
2023-02-25T06:51:38.901Z,1.38
2023-02-25T06:54:06.547Z,1.02
2023-02-25T06:56:35.470Z,1.40
2023-02-25T06:59:03.090Z,1.88
2023-02-25T07:01:30.892Z,2.65
2023-02-25T07:03:58.517Z,0.82
2023-02-25T07:06:26.054Z,0.80
2023-02-25T07:08:53.671Z,1.33
2023-02-25T07:11:30.431Z,1.08
2023-02-25T07:13:59.379Z,1.17
2023-02-25T07:16:29.814Z,0.70
2023-02-25T07:18:57.869Z,1.48
2023-02-25T07:21:29.274Z,0.82
2023-02-25T07:23:57.114Z,1.08
2023-02-25T07:26:28.177Z,0.73
2023-02-25T07:28:56.961Z,2.13
2023-02-25T07:31:27.827Z,1.02
2023-02-25T07:33:56.300Z,0.90
2023-02-25T07:36:27.169Z,1.27
2023-02-25T07:38:54.695Z,2.08
2023-02-25T07:41:23.297Z,1.25
2023-02-25T07:43:51.316Z,0.80
2023-02-25T07:46:18.985Z,0.95
2023-02-25T07:48:48.365Z,0.82
2023-02-25T07:51:18.680Z,0.80
2023-02-25T07:53:47.005Z,0.80
2023-02-25T07:56:15.639Z,1.50
2023-02-25T07:58:43.237Z,1.00
2023-02-25T08:01:11.651Z,1.10
2023-02-25T08:03:40.326Z,0.70
2023-02-25T08:06:09.581Z,2.00
2023-02-25T08:08:37.737Z,1.38
2023-02-25T08:11:09.000Z,0.82
2023-02-25T08:13:36.683Z,1.02
2023-02-25T08:16:05.738Z,0.70
2023-02-25T08:18:33.343Z,0.80
2023-02-25T08:21:02.773Z,0.80
2023-02-25T08:23:32.087Z,1.02
2023-02-25T08:26:00.272Z,0.77
2023-02-25T08:28:33.919Z,0.90
2023-02-25T08:31:04.350Z,0.60
2023-02-25T08:33:32.089Z,0.85
2023-02-25T08:36:09.476Z,1.40
2023-02-25T08:38:39.508Z,1.00
2023-02-25T08:41:08.053Z,0.75
2023-02-25T08:43:36.259Z,1.50
2023-02-25T08:46:04.121Z,1.52
2023-02-25T08:48:31.790Z,1.20
2023-02-25T08:51:03.557Z,0.98
2023-02-25T08:53:31.109Z,0.95
2023-02-25T08:56:03.298Z,1.30
2023-02-25T08:58:30.904Z,0.70
2023-02-25T09:00:58.573Z,0.85
2023-02-25T09:03:26.159Z,0.82
2023-02-25T09:05:54.326Z,0.90
2023-02-25T09:08:22.006Z,1.00
2023-02-25T09:10:50.986Z,0.80
2023-02-25T09:13:20.026Z,1.00
2023-02-25T09:15:49.566Z,1.33
2023-02-25T09:18:17.160Z,2.00
2023-02-25T09:20:44.669Z,0.73
2023-02-25T09:23:12.363Z,1.00
2023-02-25T09:25:40.743Z,1.00
2023-02-25T09:28:08.324Z,1.08
2023-02-25T09:30:37.266Z,1.05
2023-02-25T09:33:05.699Z,0.85
2023-02-25T09:35:33.485Z,1.40
2023-02-25T09:38:01.025Z,1.23
2023-02-25T09:40:28.757Z,0.80
2023-02-25T09:43:09.292Z,1.00
2023-02-25T09:45:38.808Z,0.90
2023-02-25T09:48:16.584Z,0.82
2023-02-25T09:50:48.403Z,0.90
2023-02-25T09:53:21.116Z,0.80
2023-02-25T09:55:50.899Z,1.13
2023-02-25T09:58:25.203Z,0.93
2023-02-25T10:01:21.345Z,0.80
2023-02-25T10:03:55.857Z,0.82
2023-02-25T10:06:28.571Z,0.82
2023-02-25T10:09:06.972Z,0.70
2023-02-25T10:11:47.575Z,0.57
2023-02-25T10:14:36.201Z,0.93
2023-02-25T10:17:12.182Z,0.70
2023-02-25T10:19:56.885Z,0.77
2023-02-25T10:22:39.503Z,0.80
2023-02-25T10:25:13.692Z,0.90
2023-02-25T10:27:47.000Z,1.20
2023-02-25T10:30:17.569Z,1.00
2023-02-25T10:32:47.214Z,0.50
2023-02-25T10:35:19.475Z,0.90
2023-02-25T10:37:47.388Z,1.73
2023-02-25T10:40:18.445Z,1.13
2023-02-25T10:42:49.002Z,1.75
2023-02-25T10:45:24.073Z,0.90
2023-02-25T10:47:59.265Z,1.00
2023-02-25T10:50:45.457Z,1.13
2023-02-25T10:53:16.460Z,1.02
2023-02-25T10:55:51.637Z,0.70
2023-02-25T10:58:41.409Z,1.00
2023-02-25T11:01:14.698Z,0.80
2023-02-25T11:03:55.343Z,1.83
2023-02-25T11:06:27.722Z,0.50
2023-02-25T11:08:58.569Z,1.02
2023-02-25T11:11:30.934Z,1.00
2023-02-25T11:14:05.138Z,0.75
2023-02-25T11:16:36.192Z,0.60
2023-02-25T11:19:14.903Z,1.30
2023-02-25T11:21:43.175Z,1.17
2023-02-25T11:24:14.519Z,1.33
2023-02-25T11:26:45.010Z,0.88
2023-02-25T11:29:15.643Z,0.85
2023-02-25T11:31:44.693Z,0.80
2023-02-25T11:34:21.844Z,1.15
2023-02-25T11:36:51.159Z,0.70
2023-02-25T11:39:21.346Z,0.80
2023-02-25T11:41:50.524Z,0.77
2023-02-25T11:44:31.822Z,0.90
2023-02-25T11:47:08.281Z,0.63
2023-02-25T11:49:50.315Z,0.80
2023-02-25T11:52:26.261Z,0.73
2023-02-25T11:55:05.467Z,1.95
2023-02-25T11:57:48.048Z,0.60
2023-02-25T12:00:25.435Z,0.90
2023-02-25T12:03:22.990Z,0.77
2023-02-25T12:06:02.474Z,0.90
2023-02-25T12:08:40.241Z,0.73
2023-02-25T12:11:33.862Z,0.70
2023-02-25T12:14:46.222Z,0.75
2023-02-25T12:17:30.486Z,1.17
2023-02-25T12:20:40.936Z,0.88
2023-02-25T12:23:54.137Z,0.57
2023-02-25T12:26:35.834Z,0.90
2023-02-25T12:29:25.898Z,0.70
2023-02-25T12:32:30.695Z,1.10
2023-02-25T12:35:23.013Z,0.90
2023-02-25T12:38:26.300Z,1.20
2023-02-25T12:41:14.951Z,1.15
2023-02-25T12:43:51.235Z,1.33
2023-02-25T12:46:36.309Z,0.88
2023-02-25T12:49:23.693Z,1.02
2023-02-25T12:52:10.589Z,1.17
2023-02-25T12:55:00.386Z,0.70
2023-02-25T12:57:40.760Z,0.73
2023-02-25T13:00:42.571Z,1.10
2023-02-25T13:03:40.593Z,1.25
2023-02-25T13:06:22.407Z,1.20
2023-02-25T13:09:07.112Z,1.00
2023-02-25T13:12:09.943Z,1.17
2023-02-25T13:14:44.704Z,0.90
2023-02-25T13:17:29.024Z,1.20
2023-02-25T13:20:21.131Z,0.80
2023-02-25T13:22:59.661Z,0.90
2023-02-25T13:25:39.274Z,0.90
2023-02-25T13:28:18.131Z,0.75
2023-02-25T13:30:53.504Z,0.90
2023-02-25T13:33:46.012Z,1.00
2023-02-25T13:36:33.738Z,0.85
2023-02-25T13:39:15.529Z,1.10
2023-02-25T13:41:59.842Z,0.90
2023-02-25T13:44:53.035Z,1.13
2023-02-25T13:47:42.581Z,0.95
2023-02-25T13:50:48.750Z,1.00
2023-02-25T13:53:32.565Z,0.80
2023-02-25T13:56:24.285Z,0.93
2023-02-25T13:59:16.158Z,0.95
2023-02-25T14:02:01.409Z,0.75
2023-02-25T14:05:00.318Z,1.00
2023-02-25T14:07:55.320Z,1.00
2023-02-25T14:10:34.218Z,0.93
2023-02-25T14:13:20.894Z,1.15
2023-02-25T14:15:59.861Z,0.90
2023-02-25T14:18:46.575Z,0.82
2023-02-25T14:21:43.431Z,0.80
2023-02-25T14:24:20.301Z,0.85
2023-02-25T14:26:57.537Z,0.80
2023-02-25T14:29:32.413Z,0.68
2023-02-25T14:32:23.072Z,1.02
2023-02-25T14:35:13.891Z,0.88
2023-02-25T14:37:49.887Z,1.00
2023-02-25T14:40:26.977Z,0.80
2023-02-25T14:43:27.996Z,0.80
2023-02-25T14:46:00.442Z,1.02
2023-02-25T14:48:33.512Z,1.10
2023-02-25T14:51:26.742Z,1.00
2023-02-25T14:54:17.666Z,0.93
2023-02-25T14:56:54.983Z,1.00
2023-02-25T14:59:55.321Z,1.00
2023-02-25T15:02:48.084Z,1.27
2023-02-25T15:05:52.613Z,1.20
2023-02-25T15:08:39.850Z,1.23
2023-02-25T15:11:22.172Z,1.17
2023-02-25T15:14:28.401Z,0.90
2023-02-25T15:17:18.684Z,1.00
2023-02-25T15:20:17.534Z,1.05
2023-02-25T15:22:57.301Z,1.08
2023-02-25T15:25:37.630Z,1.13
2023-02-25T15:28:38.846Z,0.88
2023-02-25T15:31:29.867Z,0.93
2023-02-25T15:34:33.713Z,1.08
2023-02-25T15:37:23.163Z,1.00
2023-02-25T15:39:54.378Z,1.08
2023-02-25T15:42:46.588Z,2.03
2023-02-25T15:45:37.886Z,1.10
2023-02-25T15:48:35.409Z,1.38
2023-02-25T15:51:10.171Z,0.90
2023-02-25T15:53:48.994Z,1.25
2023-02-25T15:56:50.020Z,0.80
2023-02-25T15:59:46.573Z,1.25
2023-02-25T16:02:42.807Z,1.30
2023-02-25T16:05:24.550Z,1.10
2023-02-25T16:08:14.226Z,1.00
2023-02-25T16:10:45.557Z,1.75
2023-02-25T16:13:16.661Z,1.13
2023-02-25T16:15:47.196Z,1.65
2023-02-25T16:18:19.290Z,1.25
2023-02-25T16:20:50.126Z,1.30
2023-02-25T16:23:20.011Z,0.93
2023-02-25T16:25:58.388Z,1.23
2023-02-25T16:28:37.558Z,1.00
2023-02-25T16:31:12.316Z,1.15
2023-02-25T16:33:47.629Z,1.40
2023-02-25T16:36:22.590Z,1.90
2023-02-25T16:38:57.649Z,1.27
2023-02-25T16:41:33.308Z,1.70
2023-02-25T16:44:05.940Z,1.50
2023-02-25T16:46:36.155Z,2.05
2023-02-25T16:49:08.632Z,1.95
2023-02-25T16:51:38.570Z,2.72
2023-02-25T16:54:11.697Z,1.60
2023-02-25T16:56:41.569Z,3.08
2023-02-25T16:59:18.639Z,1.58
2023-02-25T17:01:54.582Z,2.30
2023-02-25T17:04:25.035Z,2.13
2023-02-25T17:07:25.331Z,1.90
2023-02-25T17:09:56.175Z,1.60
2023-02-25T17:12:31.057Z,1.65
2023-02-25T17:15:01.670Z,1.30
2023-02-25T17:17:33.044Z,1.00
2023-02-25T17:20:05.163Z,0.93
2023-02-25T17:22:35.259Z,1.10
2023-02-25T17:25:06.429Z,0.90
2023-02-25T17:27:41.270Z,1.52
2023-02-25T17:30:34.088Z,1.05
2023-02-25T17:33:18.595Z,1.00
2023-02-25T17:35:47.921Z,0.93
2023-02-25T17:38:19.130Z,1.10
2023-02-25T17:40:48.638Z,1.83
2023-02-25T17:43:21.834Z,1.38
2023-02-25T17:45:57.764Z,0.82
2023-02-25T17:48:28.066Z,1.67
2023-02-25T17:50:59.407Z,1.20
2023-02-25T17:53:38.152Z,3.38
2023-02-25T17:56:13.198Z,3.17
2023-02-25T17:58:40.856Z,3.38
2023-02-25T18:01:10.200Z,4.75
2023-02-25T18:03:45.112Z,4.40
2023-02-25T18:06:30.671Z,4.00
2023-02-25T18:09:02.656Z,2.78
2023-02-25T18:11:35.086Z,2.72
2023-02-25T18:14:20.114Z,2.35
2023-02-25T18:16:47.839Z,2.33
2023-02-25T18:19:38.505Z,1.98
2023-02-25T18:22:08.873Z,1.50
2023-02-25T18:24:38.348Z,1.35
2023-02-25T18:27:20.594Z,1.17
2023-02-25T18:29:48.665Z,1.02
2023-02-25T18:32:16.792Z,1.20
2023-02-25T18:34:44.480Z,1.00
2023-02-25T18:37:17.365Z,0.90
2023-02-25T18:39:46.829Z,1.13
2023-02-25T18:42:17.852Z,1.63
2023-02-25T18:44:46.536Z,1.63
2023-02-25T18:47:14.204Z,1.85
2023-02-25T18:49:42.021Z,1.90
2023-02-25T18:52:18.430Z,2.05
2023-02-25T18:54:46.024Z,2.03
2023-02-25T18:57:20.239Z,2.08
2023-02-25T18:59:47.923Z,2.03
2023-02-25T19:02:28.416Z,1.52
2023-02-25T19:04:56.393Z,3.13
2023-02-25T19:07:26.102Z,1.77
2023-02-25T19:09:54.145Z,3.38
2023-02-25T19:12:24.051Z,2.95
2023-02-25T19:14:56.104Z,2.15
2023-02-25T19:17:23.854Z,1.80
2023-02-25T19:19:51.573Z,1.02
2023-02-25T19:22:19.451Z,1.75
2023-02-25T19:24:48.701Z,1.25
2023-02-25T19:27:20.331Z,2.67
2023-02-25T19:29:50.588Z,2.78
2023-02-25T19:32:19.245Z,2.50
2023-02-25T19:34:47.379Z,2.55
2023-02-25T19:37:17.402Z,2.00
2023-02-25T19:39:45.384Z,2.08
2023-02-25T19:42:13.733Z,1.58
2023-02-25T19:44:41.300Z,1.77
2023-02-25T19:47:10.233Z,1.73
2023-02-25T19:49:37.791Z,1.55
2023-02-25T19:52:05.622Z,1.80
2023-02-25T19:54:33.180Z,1.70
2023-02-25T19:57:01.746Z,2.20
2023-02-25T19:59:30.998Z,2.00
2023-02-25T20:01:58.617Z,1.70
2023-02-25T20:04:27.704Z,1.60
2023-02-25T20:06:55.282Z,1.92
2023-02-25T20:09:22.902Z,1.60
2023-02-25T20:11:51.558Z,1.67
2023-02-25T20:14:19.174Z,1.48
2023-02-25T20:16:46.966Z,1.35
2023-02-25T20:19:14.883Z,1.30
2023-02-25T20:21:44.016Z,1.67
2023-02-25T20:24:11.714Z,1.95
2023-02-25T20:26:39.846Z,1.92
2023-02-25T20:29:07.666Z,1.40
2023-02-25T20:31:35.274Z,1.80
2023-02-25T20:34:05.648Z,1.45
2023-02-25T20:36:39.520Z,1.17
2023-02-25T20:39:34.408Z,1.58
2023-02-25T20:42:03.417Z,1.25
2023-02-25T20:44:31.767Z,1.10
2023-02-25T20:46:59.940Z,1.30
2023-02-25T20:49:28.076Z,0.82
2023-02-25T20:51:56.343Z,1.15
2023-02-25T20:54:25.304Z,1.58
2023-02-25T20:56:52.974Z,1.20
2023-02-25T20:59:20.588Z,1.55
2023-02-25T21:01:48.100Z,1.30
2023-02-25T21:04:16.071Z,1.38
2023-02-25T21:06:44.194Z,1.50
2023-02-25T21:09:11.820Z,1.45
2023-02-25T21:11:40.676Z,1.42
2023-02-25T21:14:10.265Z,1.25
2023-02-25T21:16:38.063Z,1.23
2023-02-25T21:19:06.275Z,1.63
2023-02-25T21:21:37.170Z,1.30
2023-02-25T21:24:05.847Z,2.08
2023-02-25T21:26:33.631Z,1.42
2023-02-25T21:29:02.565Z,1.23
2023-02-25T21:31:30.229Z,1.35
2023-02-25T21:33:59.715Z,1.20
2023-02-25T21:36:27.535Z,1.17
2023-02-25T21:38:55.307Z,1.55
2023-02-25T21:41:23.339Z,1.17
2023-02-25T21:43:53.008Z,1.17
2023-02-25T21:46:22.215Z,1.55
2023-02-25T21:48:50.704Z,1.73
2023-02-25T21:51:20.131Z,1.20
2023-02-25T21:53:48.058Z,1.10
2023-02-25T21:56:18.243Z,1.60
2023-02-25T21:58:46.181Z,1.17
2023-02-25T22:01:16.021Z,1.13
2023-02-25T22:03:46.111Z,1.33
2023-02-25T22:06:15.244Z,1.27
2023-02-25T22:08:45.393Z,1.02
2023-02-25T22:11:14.172Z,1.10
2023-02-25T22:13:42.930Z,2.20
2023-02-25T22:16:11.259Z,3.17
2023-02-25T22:18:39.679Z,1.20
2023-02-25T22:21:11.673Z,1.50
2023-02-25T22:23:39.876Z,1.23
2023-02-25T22:26:09.810Z,1.48
2023-02-25T22:28:37.993Z,1.73
2023-02-25T22:31:06.386Z,1.67
2023-02-25T22:33:34.064Z,1.20
2023-02-25T22:36:03.406Z,1.40
2023-02-25T22:38:34.762Z,1.20
2023-02-25T22:41:03.051Z,2.03
2023-02-25T22:43:32.518Z,1.60
2023-02-25T22:46:11.197Z,1.17
2023-02-25T22:48:40.679Z,0.90
2023-02-25T22:51:10.162Z,1.05
2023-02-25T22:53:41.120Z,1.13
2023-02-25T22:56:10.809Z,1.25
2023-02-25T22:58:40.512Z,1.02
2023-02-25T23:01:08.787Z,1.23
2023-02-25T23:03:36.476Z,1.48
2023-02-25T23:06:04.581Z,1.30
2023-02-25T23:08:32.268Z,1.00
2023-02-25T23:11:10.127Z,1.02
2023-02-25T23:13:38.282Z,1.10
2023-02-25T23:16:07.281Z,0.80
2023-02-25T23:18:35.040Z,0.85
2023-02-25T23:21:07.654Z,1.10
2023-02-25T23:23:38.440Z,1.60
2023-02-25T23:26:09.141Z,1.30
2023-02-25T23:28:37.223Z,0.98
2023-02-25T23:31:05.590Z,1.00
2023-02-25T23:33:34.150Z,1.02
2023-02-25T23:36:05.836Z,1.52
2023-02-25T23:38:33.988Z,1.40
2023-02-25T23:41:01.676Z,1.80
2023-02-25T23:43:30.637Z,1.98
2023-02-25T23:45:58.226Z,1.25
2023-02-25T23:48:26.093Z,1.33
2023-02-25T23:50:53.799Z,1.13
2023-02-25T23:53:21.350Z,1.75
2023-02-25T23:55:49.232Z,1.30
2023-02-25T23:58:16.898Z,1.20
